Terminal Aerodrome Forecast
Issued by NWS Pocatello, ID

Home | Current Version | Previous Version | Text Only | Print | Product List | Glossary On
Versions: 1 2 3 4 5 6 7 8 9 10 11 12 13 14 15 16 17
000
FTUS45 KPIH 170520
TAFPIH
TAF
KPIH 170520Z 1706/1806 25005KT P6SM SCT070
     FM170700 24005KT P6SM SCT020 OVC035
     FM171100 VRB05KT P6SM BKN035 BKN060
     FM171900 VRB05KT P6SM SCT035 SCT150
     FM180200 VRB06KT P6SM BKN060=

USA.gov is the U.S. government's official web portal to all federal, state and local government web resources and services.